createdAt,value
2019-01-30T00:01:56.023Z,4.39
2019-01-30T00:07:02.094Z,4.57
2019-01-30T00:12:09.841Z,4.71
2019-01-30T00:17:13.608Z,4.92
2019-01-30T00:22:19.652Z,4.29
2019-01-30T00:27:25.643Z,6.11
2019-01-30T00:32:31.635Z,3.87
2019-01-30T00:37:37.662Z,3.94
2019-01-30T00:42:43.678Z,5.56
2019-01-30T00:47:49.658Z,4.18
2019-01-30T00:52:55.712Z,3.95
2019-01-30T00:58:01.742Z,4.03
2019-01-30T01:03:07.833Z,3.73
2019-01-30T01:08:13.876Z,5.57
2019-01-30T01:13:19.860Z,3.74
2019-01-30T01:18:25.947Z,3.64
2019-01-30T01:23:32.507Z,5.68
2019-01-30T01:28:38.491Z,3.67
2019-01-30T01:33:44.485Z,3.85
2019-01-30T01:38:50.497Z,5.08
2019-01-30T01:43:56.496Z,3.49
2019-01-30T01:49:02.550Z,3.50
2019-01-30T01:54:08.536Z,3.61
2019-01-30T01:59:14.560Z,3.81
2019-01-30T02:04:20.553Z,5.52
2019-01-30T02:09:26.576Z,3.39
2019-01-30T02:14:32.556Z,3.53
2019-01-30T02:19:38.577Z,3.74
2019-01-30T02:24:44.598Z,4.02
2019-01-30T02:29:50.606Z,3.80
2019-01-30T02:34:56.670Z,5.95
2019-01-30T02:40:02.668Z,3.92
2019-01-30T02:45:08.715Z,5.61
2019-01-30T02:50:14.729Z,5.93
2019-01-30T02:55:20.679Z,4.00
2019-01-30T03:00:26.640Z,5.81
2019-01-30T03:05:32.633Z,3.69
2019-01-30T03:10:38.638Z,5.17
2019-01-30T03:15:44.632Z,3.61
2019-01-30T03:20:50.629Z,3.71
2019-01-30T03:25:56.624Z,3.70
2019-01-30T03:31:17.352Z,5.39
2019-01-30T03:36:08.154Z,3.84
2019-01-30T03:41:14.211Z,4.87
2019-01-30T03:46:20.199Z,3.58
2019-01-30T03:51:26.173Z,3.20
2019-01-30T03:56:32.166Z,3.59
2019-01-30T04:01:38.200Z,5.18
2019-01-30T04:06:44.175Z,3.66
2019-01-30T04:11:50.252Z,3.16
2019-01-30T04:16:56.242Z,3.72
2019-01-30T04:22:02.277Z,3.36
2019-01-30T04:27:08.262Z,3.25
2019-01-30T04:32:14.323Z,3.87
2019-01-30T04:37:20.380Z,3.51
2019-01-30T04:42:26.390Z,3.69
2019-01-30T04:47:32.457Z,4.88
2019-01-30T04:52:38.496Z,5.18
2019-01-30T04:57:44.512Z,3.40
2019-01-30T05:02:50.524Z,5.43
2019-01-30T05:07:56.533Z,3.63
2019-01-30T05:13:02.526Z,3.68
2019-01-30T05:18:08.568Z,5.24
2019-01-30T05:23:14.603Z,4.11
2019-01-30T05:28:20.603Z,4.10
2019-01-30T05:33:26.630Z,4.13
2019-01-30T05:38:32.697Z,5.88
2019-01-30T05:43:38.955Z,6.98
2019-01-30T05:48:45.046Z,4.17
2019-01-30T05:53:51.132Z,4.34
2019-01-30T05:58:57.165Z,6.32
2019-01-30T06:04:03.238Z,3.91
2019-01-30T06:09:09.295Z,4.45
2019-01-30T06:14:15.297Z,4.51
2019-01-30T06:19:21.374Z,4.62
2019-01-30T06:24:27.374Z,4.63
2019-01-30T06:29:33.392Z,6.99
2019-01-30T06:34:39.419Z,4.82
2019-01-30T06:39:45.466Z,5.28
2019-01-30T06:44:51.538Z,4.78
2019-01-30T06:49:57.559Z,4.00
2019-01-30T06:55:03.581Z,8.56
2019-01-30T07:00:09.578Z,5.24
2019-01-30T07:05:15.598Z,5.33
2019-01-30T07:10:21.634Z,5.56
2019-01-30T07:15:27.640Z,5.81
2019-01-30T07:20:33.667Z,8.34
2019-01-30T07:25:39.709Z,6.42
2019-01-30T07:30:45.728Z,7.12
2019-01-30T07:35:51.730Z,6.59
2019-01-30T07:40:57.759Z,6.97
2019-01-30T07:46:03.781Z,6.11
2019-01-30T07:51:09.844Z,9.88
2019-01-30T07:56:15.845Z,6.67
2019-01-30T08:01:22.132Z,8.86
2019-01-30T08:06:27.932Z,10.93
2019-01-30T08:11:34.021Z,6.97
2019-01-30T08:16:40.120Z,6.65
2019-01-30T08:21:46.238Z,7.46
2019-01-30T08:26:52.543Z,6.38
2019-01-30T08:31:58.603Z,6.58
2019-01-30T08:37:03.899Z,7.97
2019-01-30T08:42:09.911Z,8.62
2019-01-30T08:47:16.064Z,8.95
2019-01-30T08:52:22.075Z,7.45
2019-01-30T08:57:28.100Z,7.11
2019-01-30T09:02:34.108Z,6.55
2019-01-30T09:07:44.246Z,12.35
2019-01-30T09:12:45.761Z,7.55
2019-01-30T09:17:51.748Z,8.64
2019-01-30T09:22:57.807Z,7.86
2019-01-30T09:28:03.847Z,7.11
2019-01-30T09:33:09.867Z,7.47
2019-01-30T09:38:15.922Z,6.82
2019-01-30T09:43:21.994Z,7.06
2019-01-30T09:48:28.006Z,6.81
2019-01-30T09:53:34.048Z,6.91
2019-01-30T09:58:40.103Z,10.46
2019-01-30T10:03:46.156Z,7.49
2019-01-30T10:08:52.297Z,7.43
2019-01-30T10:13:58.227Z,7.59
2019-01-30T10:19:04.261Z,7.34
2019-01-30T10:24:10.318Z,8.08
2019-01-30T10:29:16.344Z,7.66
2019-01-30T10:34:22.633Z,7.89
2019-01-30T10:39:28.657Z,7.02
2019-01-30T10:49:34.871Z,9.01
2019-01-30T10:54:40.831Z,8.37
2019-01-30T10:59:46.826Z,8.33
2019-01-30T11:04:52.820Z,11.95
2019-01-30T11:09:58.951Z,7.67
2019-01-30T11:15:04.973Z,7.89
2019-01-30T11:20:11.033Z,8.20
2019-01-30T11:25:17.027Z,14.19
2019-01-30T11:30:23.052Z,7.80
2019-01-30T11:35:29.182Z,11.54
2019-01-30T11:40:35.233Z,11.20
2019-01-30T11:45:41.236Z,13.51
2019-01-30T11:50:47.244Z,8.13
2019-01-30T11:55:53.360Z,8.35
2019-01-30T12:00:59.418Z,9.73
2019-01-30T12:06:05.412Z,9.80
2019-01-30T12:11:11.426Z,14.54
2019-01-30T12:16:17.405Z,8.17
2019-01-30T12:21:23.436Z,9.68
2019-01-30T12:26:29.504Z,14.24
2019-01-30T12:31:35.545Z,13.91
2019-01-30T12:36:41.539Z,9.39
2019-01-30T12:41:47.548Z,9.31
2019-01-30T12:46:53.553Z,10.22
2019-01-30T12:51:59.601Z,9.79
2019-01-30T12:57:05.801Z,10.78
2019-01-30T13:02:11.918Z,11.25
2019-01-30T13:07:17.947Z,11.84
2019-01-30T13:12:23.936Z,14.88
2019-01-30T13:17:30.036Z,12.61
2019-01-30T13:22:36.125Z,13.08
2019-01-30T13:27:42.205Z,17.79
2019-01-30T13:32:48.228Z,19.42
2019-01-30T13:37:54.273Z,13.55
2019-01-30T13:43:00.268Z,21.57
2019-01-30T13:48:06.270Z,13.72
2019-01-30T13:53:14.343Z,14.37
2019-01-30T13:58:17.959Z,12.69
2019-01-30T14:03:23.991Z,19.22
2019-01-30T14:08:30.068Z,14.24
2019-01-30T14:13:36.270Z,13.28
2019-01-30T14:18:42.390Z,19.33
2019-01-30T14:23:48.490Z,13.89
2019-01-30T14:28:54.536Z,13.12
2019-01-30T14:34:00.539Z,20.34
2019-01-30T14:39:06.639Z,14.92
2019-01-30T14:44:12.620Z,15.06
2019-01-30T14:49:18.846Z,23.92
2019-01-30T14:54:24.881Z,18.30
2019-01-30T14:59:31.161Z,17.33
2019-01-30T15:04:37.315Z,16.60
2019-01-30T15:09:43.573Z,16.50
2019-01-30T15:14:49.757Z,17.00
2019-01-30T15:19:55.740Z,17.32
2019-01-30T15:25:01.999Z,19.00
2019-01-30T15:30:08.017Z,16.75
2019-01-30T15:35:14.218Z,17.59
2019-01-30T15:40:20.355Z,23.91
2019-01-30T15:45:26.409Z,17.41
2019-01-30T15:50:32.649Z,15.85
2019-01-30T15:55:38.661Z,17.26
2019-01-30T16:00:44.674Z,17.19
2019-01-30T16:05:50.717Z,16.49
2019-01-30T16:10:56.814Z,16.73
2019-01-30T16:16:02.978Z,19.97
2019-01-30T16:21:09.155Z,20.78
2019-01-30T16:26:15.239Z,20.96
2019-01-30T16:31:21.318Z,19.88
2019-01-30T16:36:27.410Z,21.09
2019-01-30T16:41:33.428Z,21.84
2019-01-30T16:46:39.450Z,24.56
2019-01-30T16:51:45.489Z,25.32
2019-01-30T16:56:52.574Z,26.85
2019-01-30T17:01:58.606Z,29.75
2019-01-30T17:07:04.619Z,29.01
2019-01-30T17:12:10.670Z,29.64
2019-01-30T17:17:16.776Z,32.09
2019-01-30T17:22:22.898Z,31.22
2019-01-30T17:27:29.062Z,31.31
2019-01-30T17:32:35.256Z,30.51
2019-01-30T17:37:41.331Z,30.91
2019-01-30T17:42:47.466Z,30.90
2019-01-30T17:47:53.556Z,28.03
2019-01-30T17:52:59.564Z,30.30
2019-01-30T17:58:05.884Z,30.57
2019-01-30T18:03:11.984Z,40.54
2019-01-30T18:08:18.005Z,26.96
2019-01-30T18:13:24.054Z,25.25
2019-01-30T18:18:30.141Z,24.89
2019-01-30T18:23:36.432Z,24.11
2019-01-30T18:28:42.460Z,24.81
2019-01-30T18:33:48.574Z,23.63
2019-01-30T18:38:54.661Z,24.26
2019-01-30T18:44:00.728Z,23.91
2019-01-30T18:49:07.218Z,21.64
2019-01-30T18:54:13.739Z,22.69
2019-01-30T18:59:19.948Z,22.03
2019-01-30T19:04:25.980Z,22.81
2019-01-30T19:09:32.026Z,32.29
2019-01-30T19:14:38.114Z,21.02
2019-01-30T19:19:44.168Z,19.49
2019-01-30T19:24:50.237Z,19.36
2019-01-30T19:29:56.333Z,19.16
2019-01-30T19:35:02.534Z,19.02
2019-01-30T19:40:08.548Z,18.08
2019-01-30T19:45:14.712Z,15.69
2019-01-30T19:50:20.845Z,16.22
2019-01-30T19:55:26.959Z,15.14
2019-01-30T20:00:33.068Z,15.94
2019-01-30T20:05:39.100Z,12.07
2019-01-30T20:10:45.166Z,19.15
2019-01-30T20:15:51.244Z,10.49
2019-01-30T20:20:57.294Z,10.31
2019-01-30T20:26:03.338Z,9.78
2019-01-30T20:31:09.366Z,9.75
2019-01-30T20:36:15.459Z,9.05
2019-01-30T20:41:21.501Z,13.44
2019-01-30T20:46:27.836Z,8.43
2019-01-30T20:51:33.895Z,7.79
2019-01-30T20:56:39.912Z,11.16
2019-01-30T21:01:46.078Z,7.23
2019-01-30T21:06:52.117Z,7.06
2019-01-30T21:11:58.217Z,10.10
2019-01-30T21:17:04.270Z,7.59
2019-01-30T21:22:10.394Z,9.57
2019-01-30T21:27:16.484Z,5.59
2019-01-30T21:32:22.561Z,5.60
2019-01-30T21:37:28.600Z,5.40
2019-01-30T21:42:34.667Z,5.12
2019-01-30T21:47:40.768Z,5.24
2019-01-30T21:52:46.801Z,5.10
2019-01-30T21:57:52.862Z,7.49
2019-01-30T22:02:58.995Z,5.28
2019-01-30T22:08:05.067Z,6.05
2019-01-30T22:13:11.126Z,7.07
2019-01-30T22:18:17.154Z,6.92
2019-01-30T22:23:23.175Z,6.59
2019-01-30T22:28:29.211Z,6.43
2019-01-30T22:33:35.268Z,5.47
2019-01-30T22:38:41.336Z,5.26
2019-01-30T22:43:47.614Z,5.33
2019-01-30T22:48:53.924Z,5.25
2019-01-30T22:53:59.984Z,5.21
2019-01-30T22:59:06.142Z,4.65
2019-01-30T23:04:12.237Z,4.32
2019-01-30T23:09:18.302Z,3.67
2019-01-30T23:14:24.323Z,3.42
2019-01-30T23:24:30.963Z,4.36
2019-01-30T23:29:36.847Z,3.90
2019-01-30T23:34:42.767Z,3.45
2019-01-30T23:39:48.751Z,3.60
2019-01-30T23:44:54.777Z,3.15
2019-01-30T23:50:00.788Z,2.88
2019-01-30T23:55:06.798Z,2.98
